createdAt,value
2018-05-04T00:00:07.699Z,72.80
2018-05-04T00:02:35.193Z,72.90
2018-05-04T00:05:02.674Z,73.00
2018-05-04T00:07:30.171Z,73.10
2018-05-04T00:09:58.058Z,73.30
2018-05-04T00:12:25.966Z,73.30
2018-05-04T00:14:53.451Z,73.30
2018-05-04T00:17:20.956Z,73.30
2018-05-04T00:19:48.451Z,73.30
2018-05-04T00:22:16.432Z,73.50
2018-05-04T00:24:44.319Z,73.60
2018-05-04T00:27:12.232Z,73.90
2018-05-04T00:29:39.723Z,73.90
2018-05-04T00:32:07.231Z,74.00
2018-05-04T00:34:35.119Z,74.20
2018-05-04T00:37:03.023Z,74.20
2018-05-04T00:39:30.538Z,74.20
2018-05-04T00:41:58.030Z,74.50
2018-05-04T00:44:25.927Z,74.50
2018-05-04T00:46:53.424Z,74.50
2018-05-04T00:49:20.931Z,74.90
2018-05-04T00:51:48.420Z,75.20
2018-05-04T00:54:24.122Z,75.50
2018-05-04T00:56:51.617Z,75.50
2018-05-04T00:59:19.132Z,75.60
2018-05-04T01:01:47.020Z,75.90
2018-05-04T01:04:14.952Z,76.00
2018-05-04T01:06:42.441Z,76.00
2018-05-04T01:09:10.040Z,76.10
2018-05-04T01:11:37.927Z,75.90
2018-05-04T01:14:05.443Z,75.90
2018-05-04T01:16:32.927Z,75.70
2018-05-04T01:19:00.443Z,75.70
2018-05-04T01:21:27.937Z,75.10
2018-05-04T01:23:55.447Z,74.90
2018-05-04T01:26:22.948Z,74.80
2018-05-04T01:28:50.847Z,74.90
2018-05-04T01:31:18.345Z,74.90
2018-05-04T01:33:45.851Z,74.90
2018-05-04T01:36:13.352Z,75.10
2018-05-04T01:38:40.876Z,75.10
2018-05-04T01:41:08.371Z,75.40
2018-05-04T01:43:36.328Z,76.10
2018-05-04T01:46:03.840Z,76.10
2018-05-04T01:48:31.746Z,76.60
2018-05-04T01:50:59.235Z,76.60
2018-05-04T01:53:26.757Z,76.80
2018-05-04T01:55:54.647Z,77.20
2018-05-04T01:58:22.165Z,77.20
2018-05-04T02:00:49.657Z,77.20
2018-05-04T02:03:17.167Z,77.40
2018-05-04T02:05:44.663Z,77.20
2018-05-04T02:08:12.158Z,76.90
2018-05-04T02:10:39.671Z,76.50
2018-05-04T02:13:07.174Z,76.70
2018-05-04T02:15:34.691Z,76.50
2018-05-04T02:18:02.196Z,76.60
2018-05-04T02:20:29.707Z,76.50
2018-05-04T02:22:57.207Z,76.40
2018-05-04T02:25:25.117Z,76.60
2018-05-04T02:27:52.625Z,76.60
2018-05-04T02:30:20.140Z,76.80
2018-05-04T02:32:47.632Z,77.00
2018-05-04T02:35:15.144Z,77.50
2018-05-04T02:37:42.639Z,77.60
2018-05-04T02:40:10.152Z,77.80
2018-05-04T02:42:37.646Z,77.40
2018-05-04T02:45:05.167Z,77.50
2018-05-04T02:47:33.059Z,77.50
2018-05-04T02:50:00.577Z,77.50
2018-05-04T02:52:28.077Z,77.50
2018-05-04T02:54:55.980Z,77.70
2018-05-04T02:57:23.466Z,77.70
2018-05-04T02:59:50.993Z,78.00
2018-05-04T03:02:18.494Z,78.20
2018-05-04T03:04:46.012Z,78.30
2018-05-04T03:07:13.502Z,78.10
2018-05-04T03:09:41.008Z,78.10
2018-05-04T03:12:08.503Z,77.90
2018-05-04T03:14:36.020Z,78.00
2018-05-04T03:17:03.516Z,78.10
2018-05-04T03:19:31.054Z,77.90
2018-05-04T03:21:58.597Z,77.60
2018-05-04T03:24:26.400Z,76.80
2018-05-04T03:26:53.891Z,76.40
2018-05-04T03:29:21.803Z,75.50
2018-05-04T03:31:49.297Z,75.50
2018-05-04T03:34:16.796Z,75.40
2018-05-04T03:36:44.318Z,75.20
2018-05-04T03:39:11.819Z,74.80
2018-05-04T03:41:39.344Z,74.90
2018-05-04T03:44:06.833Z,75.10
2018-05-04T03:46:34.345Z,75.30
2018-05-04T03:49:01.837Z,75.40
2018-05-04T03:51:29.739Z,74.90
2018-05-04T03:53:57.228Z,74.80
2018-05-04T03:56:24.743Z,75.10
2018-05-04T03:59:04.156Z,74.70
2018-05-04T04:01:43.592Z,74.40
2018-05-04T04:04:12.975Z,74.40
2018-05-04T04:06:40.883Z,74.10
2018-05-04T04:09:08.376Z,74.10
2018-05-04T04:11:35.881Z,74.20
2018-05-04T04:14:03.384Z,74.50
2018-05-04T04:16:31.292Z,74.40
2018-05-04T04:18:58.779Z,74.40
2018-05-04T04:21:27.139Z,74.20
2018-05-04T04:23:54.640Z,73.60
2018-05-04T04:26:22.147Z,73.70
2018-05-04T04:28:49.965Z,73.90
2018-05-04T04:31:17.487Z,74.20
2018-05-04T04:33:45.024Z,73.90
2018-05-04T04:36:12.536Z,73.80
2018-05-04T04:38:40.037Z,73.50
2018-05-04T04:41:07.555Z,73.70
2018-05-04T04:43:35.046Z,73.10
2018-05-04T04:46:02.564Z,72.90
2018-05-04T04:48:30.052Z,72.70
2018-05-04T04:50:57.550Z,72.50
2018-05-04T04:53:25.064Z,72.80
2018-05-04T04:55:52.563Z,73.00
2018-05-04T04:58:20.080Z,73.20
2018-05-04T05:00:47.969Z,73.10
2018-05-04T05:03:15.880Z,73.60
2018-05-04T05:05:43.371Z,73.60
2018-05-04T05:08:10.879Z,73.30
2018-05-04T05:10:38.369Z,73.30
2018-05-04T05:13:05.887Z,73.60
2018-05-04T05:15:33.392Z,73.60
2018-05-04T05:18:00.899Z,73.60
2018-05-04T05:20:28.400Z,73.40
2018-05-04T05:22:55.916Z,73.90
2018-05-04T05:25:23.812Z,73.50
2018-05-04T05:27:51.351Z,73.50
2018-05-04T05:30:18.848Z,72.90
2018-05-04T05:32:46.371Z,73.30
2018-05-04T05:35:13.863Z,72.70
2018-05-04T05:37:41.371Z,72.50
2018-05-04T05:40:08.864Z,72.40
2018-05-04T05:42:36.374Z,72.60
2018-05-04T05:45:03.973Z,72.80
2018-05-04T05:47:31.487Z,72.50
2018-05-04T05:49:58.984Z,72.10
2018-05-04T05:52:26.546Z,70.50
2018-05-04T05:54:54.067Z,70.20
2018-05-04T05:57:21.587Z,69.10
2018-05-04T05:59:49.079Z,69.30
2018-05-04T06:02:16.994Z,67.20
2018-05-04T06:04:44.514Z,67.20
2018-05-04T06:07:12.034Z,66.60
2018-05-04T06:09:39.700Z,66.40
2018-05-04T06:12:07.225Z,64.20
2018-05-04T06:14:34.744Z,63.90
2018-05-04T06:17:02.328Z,64.30
2018-05-04T06:19:29.839Z,63.80
2018-05-04T06:21:57.340Z,62.90
2018-05-04T06:26:59.563Z,60.90
2018-05-04T06:29:27.467Z,59.90
2018-05-04T06:31:54.971Z,59.90
2018-05-04T06:34:22.489Z,59.50
2018-05-04T06:36:50.421Z,59.40
2018-05-04T06:39:17.927Z,59.40
2018-05-04T06:41:45.868Z,58.20
2018-05-04T06:44:13.380Z,58.20
2018-05-04T06:46:41.362Z,57.30
2018-05-04T06:49:09.264Z,57.90
2018-05-04T06:51:36.764Z,57.90
2018-05-04T06:54:04.270Z,58.90
2018-05-04T06:56:31.774Z,58.10
2018-05-04T06:58:59.287Z,56.60
2018-05-04T07:01:26.777Z,55.60
2018-05-04T07:03:54.295Z,56.70
2018-05-04T07:06:21.797Z,56.10
2018-05-04T07:08:49.311Z,57.00
2018-05-04T07:11:17.240Z,54.80
2018-05-04T07:13:44.792Z,54.50
2018-05-04T07:16:12.343Z,55.60
2018-05-04T07:18:40.458Z,55.10
2018-05-04T07:21:07.959Z,55.10
2018-05-04T07:23:35.467Z,55.40
2018-05-04T07:26:03.370Z,54.30
2018-05-04T07:28:30.885Z,54.30
2018-05-04T07:30:58.701Z,53.80
2018-05-04T07:33:26.611Z,53.40
2018-05-04T07:35:54.126Z,53.40
2018-05-04T07:38:21.660Z,53.20
2018-05-04T07:40:49.151Z,53.80
2018-05-04T07:43:16.825Z,53.00
2018-05-04T07:45:44.343Z,52.40
2018-05-04T07:48:11.851Z,53.00
2018-05-04T07:50:39.584Z,52.30
2018-05-04T07:53:07.111Z,53.10
2018-05-04T07:55:34.631Z,52.60
2018-05-04T07:58:02.516Z,51.50
2018-05-04T08:00:30.421Z,52.80
2018-05-04T08:02:57.943Z,52.80
2018-05-04T08:05:25.440Z,51.80
2018-05-04T08:07:52.951Z,51.30
2018-05-04T08:10:20.459Z,50.70
2018-05-04T08:12:48.351Z,52.00
2018-05-04T08:15:16.260Z,51.80
2018-05-04T08:17:43.757Z,51.80
2018-05-04T08:20:11.333Z,51.90
2018-05-04T08:22:38.787Z,51.20
2018-05-04T08:25:06.295Z,50.70
2018-05-04T08:27:33.792Z,50.60
2018-05-04T08:30:01.720Z,50.30
2018-05-04T08:32:29.208Z,50.20
2018-05-04T08:34:56.716Z,49.90
2018-05-04T08:37:24.599Z,50.90
2018-05-04T08:39:52.621Z,49.10
2018-05-04T08:42:20.107Z,49.10
2018-05-04T08:44:47.615Z,49.80
2018-05-04T08:47:15.514Z,50.90
2018-05-04T08:49:43.027Z,50.90
2018-05-04T08:52:10.528Z,48.80
2018-05-04T08:54:38.428Z,46.30
2018-05-04T08:57:05.996Z,46.20
2018-05-04T08:59:33.443Z,46.20
2018-05-04T09:02:01.101Z,47.60
2018-05-04T09:04:28.628Z,47.60
2018-05-04T09:06:56.135Z,48.00
2018-05-04T09:09:23.639Z,47.20
2018-05-04T09:11:51.540Z,47.70
2018-05-04T09:14:19.040Z,47.70
2018-05-04T09:16:46.599Z,45.90
2018-05-04T09:19:14.622Z,46.80
2018-05-04T09:21:42.559Z,47.00
2018-05-04T09:24:10.043Z,47.00
2018-05-04T09:26:37.553Z,47.70
2018-05-04T09:29:05.044Z,47.80
2018-05-04T09:31:32.956Z,46.40
2018-05-04T09:34:00.444Z,46.40
2018-05-04T09:36:27.955Z,46.60
2018-05-04T09:38:55.451Z,46.20
2018-05-04T09:41:22.959Z,46.10
2018-05-04T09:43:50.526Z,46.40
2018-05-04T09:46:17.992Z,46.00
2018-05-04T09:48:45.479Z,44.90
2018-05-04T09:51:12.983Z,46.00
2018-05-04T09:53:40.876Z,44.90
2018-05-04T09:56:08.847Z,46.80
2018-05-04T09:58:36.292Z,46.70
2018-05-04T10:01:03.804Z,46.30
2018-05-04T10:03:31.329Z,46.30
2018-05-04T10:05:58.832Z,46.40
2018-05-04T10:08:27.636Z,45.20
2018-05-04T10:10:55.535Z,45.90
2018-05-04T10:13:23.026Z,45.90
2018-05-04T10:15:50.527Z,46.10
2018-05-04T10:18:18.016Z,46.10
2018-05-04T10:20:45.523Z,46.90
2018-05-04T10:23:13.008Z,46.00
2018-05-04T10:25:40.499Z,46.20
2018-05-04T10:28:08.012Z,45.60
2018-05-04T10:30:35.895Z,45.60
2018-05-04T10:33:03.795Z,45.70
2018-05-04T10:35:31.279Z,45.70
2018-05-04T10:37:58.779Z,45.60
2018-05-04T10:40:26.273Z,46.00
2018-05-04T10:42:54.184Z,44.90
2018-05-04T10:45:22.090Z,44.90
2018-05-04T10:47:49.595Z,46.20
2018-05-04T10:50:17.091Z,45.00
2018-05-04T10:52:45.000Z,45.90
2018-05-04T10:55:12.487Z,45.90
2018-05-04T10:57:39.999Z,45.20
2018-05-04T11:00:07.889Z,44.80
2018-05-04T11:02:35.791Z,44.20
2018-05-04T11:05:03.355Z,44.20
2018-05-04T11:07:30.872Z,44.60
2018-05-04T11:09:58.364Z,44.90
2018-05-04T11:12:26.007Z,43.20
2018-05-04T11:14:53.499Z,44.30
2018-05-04T11:17:21.016Z,43.80
2018-05-04T11:19:48.511Z,44.90
2018-05-04T11:22:16.043Z,45.40
2018-05-04T11:24:43.532Z,44.10
2018-05-04T11:27:11.036Z,45.50
2018-05-04T11:29:38.528Z,45.30
2018-05-04T11:32:06.039Z,45.20
2018-05-04T11:34:33.528Z,43.60
2018-05-04T11:37:01.031Z,43.80
2018-05-04T11:39:28.524Z,43.80
2018-05-04T11:41:56.427Z,44.30
2018-05-04T11:44:23.915Z,44.30
2018-05-04T11:46:51.447Z,44.10
2018-05-04T11:49:19.332Z,44.00
2018-05-04T11:51:47.211Z,44.80
2018-05-04T11:54:15.112Z,45.10
2018-05-04T11:56:42.600Z,45.10
2018-05-04T11:59:10.135Z,45.30
2018-05-04T12:01:38.023Z,44.60
2018-05-04T12:04:05.924Z,44.10
2018-05-04T12:06:33.480Z,44.10
2018-05-04T12:09:01.384Z,45.30
2018-05-04T12:11:28.879Z,45.30
2018-05-04T12:13:56.391Z,44.70
2018-05-04T12:16:24.276Z,44.90
2018-05-04T12:18:51.803Z,44.90
2018-05-04T12:21:19.291Z,44.30
2018-05-04T12:23:46.801Z,44.50
2018-05-04T12:26:14.287Z,44.30
2018-05-04T12:28:41.792Z,44.70
2018-05-04T12:31:09.285Z,44.30
2018-05-04T12:33:37.192Z,44.60
2018-05-04T12:36:04.683Z,44.60
2018-05-04T12:38:32.357Z,44.40
2018-05-04T12:40:59.855Z,44.30
2018-05-04T12:43:27.387Z,44.20
2018-05-04T12:45:54.887Z,43.90
2018-05-04T12:48:22.387Z,44.60
2018-05-04T12:50:49.883Z,44.50
2018-05-04T12:53:17.784Z,45.20
2018-05-04T12:55:45.271Z,45.20
2018-05-04T12:58:12.776Z,45.30
2018-05-04T13:00:40.263Z,44.60
2018-05-04T13:03:08.318Z,44.50
2018-05-04T13:05:36.146Z,44.90
2018-05-04T13:08:03.660Z,44.90
2018-05-04T13:10:31.161Z,44.70
2018-05-04T13:12:58.658Z,45.40
2018-05-04T13:15:26.174Z,46.00
2018-05-04T13:17:53.663Z,46.10
2018-05-04T13:20:21.167Z,46.00
2018-05-04T13:22:48.656Z,46.90
2018-05-04T13:25:16.167Z,47.90
2018-05-04T13:27:43.659Z,47.40
2018-05-04T13:30:11.165Z,48.40
2018-05-04T13:32:38.659Z,47.40
2018-05-04T13:35:06.163Z,48.70
2018-05-04T13:37:33.656Z,49.20
2018-05-04T13:40:02.376Z,49.50
2018-05-04T13:42:29.863Z,49.50
2018-05-04T13:44:57.370Z,49.70
2018-05-04T13:47:24.880Z,49.20
2018-05-04T13:49:52.388Z,49.40
2018-05-04T13:52:20.401Z,49.50
2018-05-04T13:54:48.179Z,49.30
2018-05-04T13:57:15.971Z,49.80
2018-05-04T13:59:43.543Z,50.00
2018-05-04T14:02:11.727Z,49.70
2018-05-04T14:04:39.762Z,49.60
2018-05-04T14:07:07.252Z,49.60
2018-05-04T14:09:34.755Z,50.10
2018-05-04T14:12:03.065Z,50.20
2018-05-04T14:14:31.373Z,50.00
2018-05-04T14:16:59.265Z,49.50
2018-05-04T14:19:26.891Z,49.70
2018-05-04T14:21:54.780Z,50.00
2018-05-04T14:24:22.812Z,50.00
2018-05-04T14:26:51.233Z,50.10
2018-05-04T14:29:18.767Z,51.00
2018-05-04T14:31:46.255Z,50.50
2018-05-04T14:34:13.852Z,50.50
2018-05-04T14:36:42.453Z,50.60
2018-05-04T14:39:10.651Z,50.00
2018-05-04T14:41:38.533Z,50.20
2018-05-04T14:44:06.123Z,50.80
2018-05-04T14:46:33.633Z,49.50
2018-05-04T14:49:01.128Z,50.10
2018-05-04T14:51:29.368Z,50.10
2018-05-04T14:53:56.856Z,50.10
2018-05-04T14:56:24.363Z,49.90
2018-05-04T14:58:52.688Z,50.60
2018-05-04T15:01:20.191Z,50.60
2018-05-04T15:03:47.687Z,50.30
2018-05-04T15:06:15.593Z,50.00
2018-05-04T15:08:43.331Z,50.00
2018-05-04T15:11:11.344Z,50.00
2018-05-04T15:13:39.492Z,51.40
2018-05-04T15:16:07.022Z,50.70
2018-05-04T15:18:34.516Z,50.00
2018-05-04T15:21:02.291Z,49.60
2018-05-04T15:23:30.149Z,50.20
2018-05-04T15:25:57.661Z,50.70
2018-05-04T15:28:25.151Z,50.40
2018-05-04T15:30:53.356Z,50.20
2018-05-04T15:33:22.576Z,50.20
2018-05-04T15:35:51.090Z,50.20
2018-05-04T15:38:18.804Z,50.60
2018-05-04T15:40:46.307Z,50.30
2018-05-04T15:43:14.857Z,50.20
2018-05-04T15:45:42.376Z,50.10
2018-05-04T15:48:16.661Z,50.20
2018-05-04T15:50:51.289Z,50.20
2018-05-04T15:53:19.015Z,50.90
2018-05-04T15:55:46.548Z,50.90
2018-05-04T15:58:14.132Z,50.30
2018-05-04T16:00:43.019Z,49.70
2018-05-04T16:03:10.508Z,49.60
2018-05-04T16:05:38.021Z,49.00
2018-05-04T16:08:05.517Z,48.80
2018-05-04T16:10:33.007Z,49.10
2018-05-04T16:13:00.514Z,49.10
2018-05-04T16:15:28.404Z,48.60
2018-05-04T16:17:56.307Z,49.10
2018-05-04T16:20:23.795Z,49.10
2018-05-04T16:22:51.303Z,48.40
2018-05-04T16:25:18.831Z,49.10
2018-05-04T16:27:46.343Z,48.60
2018-05-04T16:30:13.835Z,48.60
2018-05-04T16:32:41.736Z,48.20
2018-05-04T16:35:09.224Z,48.10
2018-05-04T16:37:36.736Z,47.90
2018-05-04T16:40:04.229Z,48.00
2018-05-04T16:42:32.137Z,48.40
2018-05-04T16:44:59.707Z,48.40
2018-05-04T16:47:27.613Z,48.80
2018-05-04T16:49:55.107Z,48.80
2018-05-04T16:52:22.616Z,49.20
2018-05-04T16:54:50.143Z,49.20
2018-05-04T16:57:17.647Z,49.60
2018-05-04T16:59:45.530Z,48.40
2018-05-04T17:02:13.438Z,48.40
2018-05-04T17:04:40.952Z,48.40
2018-05-04T17:07:08.463Z,48.50
2018-05-04T17:09:35.952Z,48.30
2018-05-04T17:12:03.456Z,48.20
2018-05-04T17:14:30.947Z,48.50
2018-05-04T17:16:58.847Z,48.90
2018-05-04T17:19:26.341Z,48.90
2018-05-04T17:21:53.847Z,49.40
2018-05-04T17:24:21.336Z,48.90
2018-05-04T17:26:48.858Z,49.70
2018-05-04T17:29:16.355Z,49.00
2018-05-04T17:31:43.876Z,49.30
2018-05-04T17:34:11.396Z,49.80
2018-05-04T17:36:38.891Z,49.90
2018-05-04T17:39:06.796Z,49.60
2018-05-04T17:41:34.291Z,49.60
2018-05-04T17:44:01.798Z,49.80
2018-05-04T17:46:29.292Z,50.10
2018-05-04T17:48:57.203Z,50.40
2018-05-04T17:51:24.696Z,50.40
2018-05-04T17:53:52.224Z,50.70
2018-05-04T17:56:20.112Z,51.40
2018-05-04T17:58:47.667Z,51.40
2018-05-04T18:01:15.548Z,51.50
2018-05-04T18:03:43.455Z,52.00
2018-05-04T18:06:10.951Z,52.00
2018-05-04T18:08:38.466Z,52.00
2018-05-04T18:11:06.367Z,52.80
2018-05-04T18:13:33.884Z,52.80
2018-05-04T18:16:01.402Z,53.20
2018-05-04T18:18:28.928Z,53.50
2018-05-04T18:20:56.431Z,53.70
2018-05-04T18:23:24.771Z,54.00
2018-05-04T18:25:52.291Z,54.00
2018-05-04T18:28:20.191Z,54.40
2018-05-04T18:30:48.079Z,55.10
2018-05-04T18:33:15.594Z,55.10
2018-05-04T18:35:43.375Z,55.20
2018-05-04T18:38:10.883Z,55.10
2018-05-04T18:40:38.771Z,55.20
2018-05-04T18:43:06.307Z,55.20
2018-05-04T18:45:33.897Z,55.80
2018-05-04T18:48:02.443Z,56.40
2018-05-04T18:50:29.931Z,56.40
2018-05-04T18:52:57.523Z,56.40
2018-05-04T18:55:25.110Z,56.70
2018-05-04T18:57:52.887Z,56.50
2018-05-04T19:00:20.446Z,57.10
2018-05-04T19:02:53.739Z,57.20
2018-05-04T19:05:22.388Z,57.40
2018-05-04T19:07:49.893Z,57.50
2018-05-04T19:10:17.456Z,58.00
2018-05-04T19:12:44.955Z,58.70
2018-05-04T19:15:12.521Z,59.00
2018-05-04T19:17:40.017Z,59.20
2018-05-04T19:20:07.948Z,59.50
2018-05-04T19:22:35.443Z,59.50
2018-05-04T19:25:03.253Z,59.60
2018-05-04T19:27:31.147Z,60.00
2018-05-04T19:29:58.659Z,59.90
2018-05-04T19:32:26.175Z,60.20
2018-05-04T19:34:54.204Z,60.50
2018-05-04T19:37:22.001Z,60.50
2018-05-04T19:39:49.555Z,60.20
2018-05-04T19:42:17.040Z,60.60
2018-05-04T19:44:44.659Z,60.70
2018-05-04T19:47:12.669Z,60.90
2018-05-04T19:49:40.224Z,60.90
2018-05-04T19:52:07.784Z,60.90
2018-05-04T19:54:35.700Z,61.30
2018-05-04T19:57:03.395Z,61.30
2018-05-04T19:59:31.294Z,61.40
2018-05-04T20:01:58.863Z,61.40
2018-05-04T20:04:26.376Z,61.90
2018-05-04T20:06:53.876Z,61.80
2018-05-04T20:09:21.431Z,62.10
2018-05-04T20:11:48.929Z,62.10
2018-05-04T20:14:16.440Z,62.60
2018-05-04T20:16:44.335Z,62.90
2018-05-04T20:19:11.847Z,62.90
2018-05-04T20:21:39.340Z,62.80
2018-05-04T20:24:06.859Z,63.00
2018-05-04T20:26:34.351Z,63.50
2018-05-04T20:29:01.872Z,63.00
2018-05-04T20:31:29.804Z,63.10
2018-05-04T20:33:57.303Z,63.10
2018-05-04T20:36:24.816Z,63.10
2018-05-04T20:38:52.320Z,63.20
2018-05-04T20:41:19.828Z,63.00
2018-05-04T20:43:47.329Z,63.20
2018-05-04T20:46:14.891Z,63.20
2018-05-04T20:48:42.396Z,63.40
2018-05-04T20:51:09.956Z,63.30
2018-05-04T20:53:37.452Z,63.40
2018-05-04T20:56:04.962Z,63.50
2018-05-04T20:58:32.875Z,63.30
2018-05-04T21:01:00.444Z,63.40
2018-05-04T21:03:27.946Z,63.60
2018-05-04T21:05:55.464Z,63.60
2018-05-04T21:08:23.351Z,63.80
2018-05-04T21:10:51.269Z,63.80
2018-05-04T21:13:18.771Z,63.80
2018-05-04T21:15:46.279Z,63.90
2018-05-04T21:18:13.796Z,64.00
2018-05-04T21:20:41.369Z,64.10
2018-05-04T21:23:09.228Z,64.30
2018-05-04T21:25:36.724Z,64.30
2018-05-04T21:28:04.234Z,64.30
2018-05-04T21:30:32.133Z,64.60
2018-05-04T21:32:59.663Z,64.60
2018-05-04T21:35:27.160Z,64.40
2018-05-04T21:37:55.068Z,64.20
2018-05-04T21:40:22.567Z,64.20
2018-05-04T21:42:50.084Z,64.10
2018-05-04T21:45:17.976Z,64.40
2018-05-04T21:47:45.492Z,64.40
2018-05-04T21:50:12.997Z,64.30
2018-05-04T21:52:40.907Z,64.80
2018-05-04T21:55:08.416Z,64.80
2018-05-04T21:57:35.923Z,64.50
2018-05-04T22:00:03.526Z,64.40
2018-05-04T22:02:31.042Z,64.20
2018-05-04T22:04:58.528Z,64.40
2018-05-04T22:07:26.038Z,64.20
2018-05-04T22:09:53.535Z,64.40
2018-05-04T22:12:21.040Z,64.20
2018-05-04T22:14:48.535Z,64.20
2018-05-04T22:17:16.052Z,64.40
2018-05-04T22:19:43.548Z,64.50
2018-05-04T22:22:11.056Z,64.70
2018-05-04T22:24:38.552Z,64.80
2018-05-04T22:27:06.059Z,64.70
2018-05-04T22:29:33.556Z,64.90
2018-05-04T22:32:01.460Z,65.10
2018-05-04T22:34:28.995Z,65.10
2018-05-04T22:36:56.903Z,65.00
2018-05-04T22:39:24.449Z,65.00
2018-05-04T22:41:52.439Z,65.30
2018-05-04T22:44:20.327Z,65.50
2018-05-04T22:46:47.819Z,65.50
2018-05-04T22:49:15.327Z,65.40
2018-05-04T22:51:42.823Z,65.50
2018-05-04T22:54:10.732Z,65.40
2018-05-04T22:56:38.300Z,65.40
2018-05-04T22:59:05.756Z,65.30
2018-05-04T23:01:33.648Z,65.50
2018-05-04T23:04:01.152Z,65.50
2018-05-04T23:06:28.654Z,65.60
2018-05-04T23:08:56.164Z,65.40
2018-05-04T23:11:23.687Z,65.50
2018-05-04T23:13:51.204Z,65.90
2018-05-04T23:16:18.706Z,65.90
2018-05-04T23:18:46.216Z,65.80
2018-05-04T23:21:13.712Z,66.10
2018-05-04T23:23:41.225Z,66.20
2018-05-04T23:26:08.724Z,66.30
2018-05-04T23:28:36.243Z,66.40
2018-05-04T23:31:03.801Z,66.80
2018-05-04T23:33:31.319Z,66.40
2018-05-04T23:35:58.811Z,66.50
2018-05-04T23:38:26.320Z,66.50
2018-05-04T23:40:53.815Z,66.70
2018-05-04T23:43:21.323Z,66.90
2018-05-04T23:45:48.824Z,67.10
2018-05-04T23:48:16.340Z,67.10
2018-05-04T23:50:43.847Z,67.30
2018-05-04T23:53:11.756Z,67.70
2018-05-04T23:55:39.252Z,67.70
2018-05-04T23:58:06.768Z,67.90
